This is the latest recevied weather packets stored in our database for station/object KA3WVU. If no packets are shown the sender has not sent any weather packets the latest 1 day(s).
| Time | Temp. | Humidity | Pressure | Rain* | Wind** | Luminosity | Snow |
|---|---|---|---|---|---|---|---|
| 1778078562 | 11.67° C | 99% | 1006.4 hPa | 0 mm | - | 40 W/m² | - |
| 1778077957 | 11.67° C | 99% | 1006.4 hPa | 0 mm | - | 27 W/m² | - |
| 1778077353 | 11.67° C | 99% | 1006.5 hPa | 0 mm | - | 25 W/m² | - |
| 1778077051 | 11.67° C | 99% | 1006.2 hPa | 0 mm | - | 37 W/m² | - |
| 1778076143 | 11.67° C | 99% | 1006.6 hPa | 0 mm | - | 8 W/m² | - |
| 1778075536 | 11.67° C | 99% | 1006.5 hPa | 0 mm | - | 14 W/m² | - |
| 1778074929 | 11.67° C | 99% | 1006 hPa | 0 mm | - | 23 W/m² | - |
| 1778074323 | 11.67° C | 99% | 1005.5 hPa | 0 mm | - | 44 W/m² | - |
| 1778073717 | 11.11° C | 99% | 1005.9 hPa | 0 mm | - | 29 W/m² | - |
| 1778073415 | 11.11° C | 99% | 1006.2 hPa | 0 mm | - | 18 W/m² | - |
| 1778073111 | 11.11° C | 99% | 1005.7 hPa | 0 mm | - | 20 W/m² | - |
| 1778069480 | 11.11° C | 99% | 1006.3 hPa | 0 mm | - | 10 W/m² | - |
| 1778068875 | 11.11° C | 99% | 1006 hPa | 0 mm | - | 20 W/m² | - |
| 1778068271 | 11.11° C | 99% | 1006.2 hPa | 0 mm | - | 8 W/m² | - |
| 1778067968 | 11.11° C | 99% | 1006.5 hPa | 0 mm | - | 6 W/m² | - |
| 1778067666 | 11.11° C | 99% | 1006.7 hPa | 0 mm | - | 4 W/m² | - |
| 1778067061 | 11.11° C | 99% | 1006.8 hPa | 0 mm | - | 4 W/m² | - |
| 1778066455 | 11.11° C | 99% | 1006.6 hPa | 0 mm | - | 3 W/m² | - |
| 1778066153 | 11.11° C | 99% | 1006.6 hPa | 0 mm | - | 7 W/m² | - |
| 1778065850 | 11.11° C | 99% | 1006.8 hPa | 0 mm | - | 5 W/m² | - |
| 1778064638 | 11.11° C | 99% | 1006.6 hPa | 0 mm | - | 1 W/m² | - |
| 1778064336 | 11.11° C | 99% | 1006.5 hPa | 0 mm | - | 1 W/m² | - |
| 1778063126 | 11.11° C | 99% | 1006.5 hPa | 0 mm | - | 1 W/m² | - |
| 1778062823 | 11.11° C | 99% | 1006.4 hPa | 0 mm | - | 0 W/m² | - |
| 1778062519 | 11.11° C | 99% | 1006.6 hPa | 0 mm | - | 0 W/m² | - |
* Rain latest hour (hover to see other rain measurements)
** Current wind speed in m/s (hover to see current wind gust speed)